AFL1006 URSS-UUDD
Flight info
| Callsign | AFL1006 |
|---|---|
| Flight time | 1h 47m |
| Altitude | 41000 |
| Route | ADNET1T ADNET W79 AMEPU A100 KL L91 KANON T748 PEPOR T611 TUKMO N50 OLOPI OLOPI3N |
| Aircraft | A359/H-SDE2E3GHIJ3J4J5LM1ORWXY/LB1D1 |
Departure
| Time | 2026-05-04 18:09 |
|---|---|
| Airport | Sochi International Airport (URSS) |
Arrival
| Time | 2026-05-04 19:56 |
|---|---|
| Airport | Domodedovo International Airport (UUDD) |
| Time | Latitude | Longitude | Altitude | Speed | Heading |
|---|---|---|---|---|---|
| 2026-05-04 17:48 | 43.44777 | 39.94331 | 82 ft | 0 kts | 314° |
| 2026-05-04 17:57 | 43.44774 | 39.94334 | 82 ft | 2 kts | 314° |
| 2026-05-04 17:57 | 43.44762 | 39.94350 | 87 ft | 2 kts | 331° |
| 2026-05-04 17:57 | 43.44746 | 39.94355 | 85 ft | 2 kts | 356° |
| 2026-05-04 17:58 | 43.44730 | 39.94357 | 85 ft | 2 kts | 344° |
| 2026-05-04 17:58 | 43.44715 | 39.94366 | 86 ft | 2 kts | 335° |
| 2026-05-04 17:58 | 43.44699 | 39.94372 | 85 ft | 2 kts | 4° |
| 2026-05-04 17:58 | 43.44683 | 39.94366 | 86 ft | 2 kts | 35° |
| 2026-05-04 17:59 | 43.44674 | 39.94354 | 86 ft | 1 kts | 58° |
| 2026-05-04 17:59 | 43.44673 | 39.94352 | 86 ft | 0 kts | 60° |
| 2026-05-04 18:02 | 43.44680 | 39.94373 | 87 ft | 6 kts | 65° |
| 2026-05-04 18:02 | 43.44708 | 39.94455 | 89 ft | 11 kts | 64° |
| 2026-05-04 18:02 | 43.44719 | 39.94487 | 89 ft | 0 kts | 64° |
| 2026-05-04 18:03 | 43.44720 | 39.94489 | 89 ft | 2 kts | 65° |
| 2026-05-04 18:03 | 43.44736 | 39.94540 | 89 ft | 10 kts | 66° |
| 2026-05-04 18:03 | 43.44771 | 39.94638 | 90 ft | 8 kts | 63° |
| 2026-05-04 18:03 | 43.44808 | 39.94741 | 91 ft | 16 kts | 64° |
| 2026-05-04 18:04 | 43.44863 | 39.94903 | 92 ft | 19 kts | 66° |
| 2026-05-04 18:04 | 43.44909 | 39.95040 | 95 ft | 15 kts | 63° |
| 2026-05-04 18:04 | 43.45005 | 39.95310 | 99 ft | 13 kts | 66° |
| 2026-05-04 18:05 | 43.45044 | 39.95424 | 99 ft | 13 kts | 64° |
| 2026-05-04 18:05 | 43.45055 | 39.95496 | 100 ft | 2 kts | 114° |
| 2026-05-04 18:05 | 43.45046 | 39.95511 | 101 ft | 2 kts | 133° |
| 2026-05-04 18:05 | 43.45045 | 39.95512 | 101 ft | 0 kts | 134° |
| 2026-05-04 18:08 | 43.45019 | 39.95542 | 99 ft | 10 kts | 144° |
| 2026-05-04 18:08 | 43.44970 | 39.95555 | 99 ft | 5 kts | 215° |
| 2026-05-04 18:08 | 43.44944 | 39.95496 | 98 ft | 11 kts | 245° |
| 2026-05-04 18:09 | 43.44478 | 39.94140 | 89 ft | 162 kts | 244° |
| 2026-05-04 18:09 | 43.43611 | 39.90989 | 1738 ft | 193 kts | 269° |
| 2026-05-04 18:10 | 43.44108 | 39.89173 | 2507 ft | 217 kts | 306° |
| 2026-05-04 18:10 | 43.45090 | 39.87473 | 3224 ft | 240 kts | 309° |
| 2026-05-04 18:10 | 43.46147 | 39.85567 | 3788 ft | 258 kts | 306° |
| 2026-05-04 18:10 | 43.47190 | 39.83520 | 4664 ft | 263 kts | 304° |
| 2026-05-04 18:11 | 43.48203 | 39.81447 | 5577 ft | 267 kts | 303° |
| 2026-05-04 18:11 | 43.49234 | 39.79295 | 6500 ft | 271 kts | 303° |
| 2026-05-04 18:11 | 43.50276 | 39.77103 | 7437 ft | 275 kts | 302° |
| 2026-05-04 18:11 | 43.51326 | 39.74881 | 8434 ft | 279 kts | 302° |
| 2026-05-04 18:12 | 43.52388 | 39.72616 | 9442 ft | 283 kts | 301° |
| 2026-05-04 18:12 | 43.53464 | 39.70311 | 10336 ft | 291 kts | 301° |
| 2026-05-04 18:12 | 43.54599 | 39.67871 | 10762 ft | 315 kts | 301° |
| 2026-05-04 18:12 | 43.55834 | 39.65232 | 11202 ft | 337 kts | 301° |
| 2026-05-04 18:13 | 43.57125 | 39.62470 | 11939 ft | 347 kts | 301° |
| 2026-05-04 18:13 | 43.58427 | 39.59677 | 12776 ft | 354 kts | 301° |
| 2026-05-04 18:13 | 43.61136 | 39.53842 | 14355 ft | 368 kts | 301° |
| 2026-05-04 18:14 | 43.62506 | 39.50809 | 15020 ft | 376 kts | 297° |
| 2026-05-04 18:14 | 43.64106 | 39.47915 | 15671 ft | 386 kts | 317° |
| 2026-05-04 18:14 | 43.66402 | 39.45961 | 16392 ft | 392 kts | 340° |
| 2026-05-04 18:15 | 43.71736 | 39.45917 | 17946 ft | 388 kts | 25° |
| 2026-05-04 18:15 | 43.75688 | 39.50547 | 19619 ft | 372 kts | 57° |
| 2026-05-04 18:15 | 43.77439 | 39.53152 | 20473 ft | 379 kts | 46° |
| 2026-05-04 18:16 | 43.79588 | 39.55313 | 21337 ft | 386 kts | 37° |
| 2026-05-04 18:16 | 43.81966 | 39.57093 | 22139 ft | 391 kts | 31° |
| 2026-05-04 18:16 | 43.84467 | 39.58633 | 22982 ft | 395 kts | 28° |
| 2026-05-04 18:17 | 43.89648 | 39.61385 | 24371 ft | 403 kts | 26° |
| 2026-05-04 18:17 | 43.92308 | 39.62703 | 24953 ft | 408 kts | 25° |
| 2026-05-04 18:17 | 43.97685 | 39.65304 | 26125 ft | 416 kts | 25° |
| 2026-05-04 18:18 | 44.00439 | 39.66622 | 26674 ft | 421 kts | 25° |
| 2026-05-04 18:18 | 44.03221 | 39.67946 | 27269 ft | 424 kts | 25° |
| 2026-05-04 18:18 | 44.06027 | 39.69273 | 27854 ft | 429 kts | 25° |
| 2026-05-04 18:18 | 44.08863 | 39.70622 | 28402 ft | 433 kts | 25° |
| 2026-05-04 18:19 | 44.14625 | 39.73366 | 29371 ft | 442 kts | 25° |
| 2026-05-04 18:19 | 44.17545 | 39.74758 | 29888 ft | 445 kts | 25° |
| 2026-05-04 18:19 | 44.20485 | 39.76160 | 30317 ft | 449 kts | 25° |
| 2026-05-04 18:20 | 44.23418 | 39.77564 | 30706 ft | 453 kts | 24° |
| 2026-05-04 18:20 | 44.26413 | 39.78999 | 31090 ft | 458 kts | 24° |
| 2026-05-04 18:20 | 44.29442 | 39.80448 | 31480 ft | 462 kts | 24° |
| 2026-05-04 18:20 | 44.32502 | 39.81887 | 31864 ft | 467 kts | 22° |
| 2026-05-04 18:21 | 44.35683 | 39.82993 | 32230 ft | 476 kts | 14° |
| 2026-05-04 18:21 | 44.39011 | 39.83378 | 32604 ft | 485 kts | 4° |
| 2026-05-04 18:21 | 44.42400 | 39.83081 | 33022 ft | 491 kts | 358° |
| 2026-05-04 18:21 | 44.45804 | 39.82524 | 33418 ft | 494 kts | 355° |
| 2026-05-04 18:22 | 44.49215 | 39.81847 | 33804 ft | 496 kts | 354° |
| 2026-05-04 18:22 | 44.52592 | 39.81132 | 34132 ft | 498 kts | 354° |
| 2026-05-04 18:22 | 44.56030 | 39.80401 | 34428 ft | 501 kts | 354° |
| 2026-05-04 18:22 | 44.59472 | 39.79688 | 34821 ft | 500 kts | 355° |
| 2026-05-04 18:23 | 44.62917 | 39.78993 | 35219 ft | 500 kts | 355° |
| 2026-05-04 18:23 | 44.66360 | 39.78311 | 35568 ft | 500 kts | 355° |
| 2026-05-04 18:23 | 44.69813 | 39.77629 | 35898 ft | 501 kts | 355° |
| 2026-05-04 18:23 | 44.73270 | 39.76948 | 36229 ft | 502 kts | 355° |
| 2026-05-04 18:24 | 44.76732 | 39.76272 | 36551 ft | 503 kts | 354° |
| 2026-05-04 18:24 | 44.80202 | 39.75594 | 36872 ft | 504 kts | 354° |
| 2026-05-04 18:24 | 44.83632 | 39.74925 | 37166 ft | 505 kts | 354° |
| 2026-05-04 18:24 | 44.87106 | 39.74235 | 37471 ft | 505 kts | 354° |
| 2026-05-04 18:25 | 44.90594 | 39.73538 | 37785 ft | 506 kts | 354° |
| 2026-05-04 18:25 | 44.94084 | 39.72843 | 38091 ft | 507 kts | 353° |
| 2026-05-04 18:25 | 44.97579 | 39.72146 | 38392 ft | 508 kts | 353° |
| 2026-05-04 18:25 | 45.01079 | 39.71454 | 38643 ft | 508 kts | 353° |
| 2026-05-04 18:26 | 45.04586 | 39.70766 | 38894 ft | 508 kts | 353° |
| 2026-05-04 18:26 | 45.08037 | 39.70088 | 39154 ft | 508 kts | 353° |
| 2026-05-04 18:26 | 45.11534 | 39.69395 | 39414 ft | 507 kts | 353° |
| 2026-05-04 18:26 | 45.15029 | 39.68696 | 39665 ft | 507 kts | 353° |
| 2026-05-04 18:27 | 45.18522 | 39.67998 | 39873 ft | 507 kts | 353° |
| 2026-05-04 18:27 | 45.22043 | 39.67547 | 39927 ft | 510 kts | 0° |
| 2026-05-04 18:27 | 45.29146 | 39.67765 | 39937 ft | 510 kts | 4° |
| 2026-05-04 18:28 | 45.36179 | 39.68243 | 39946 ft | 509 kts | 4° |
| 2026-05-04 18:28 | 45.43260 | 39.68768 | 39949 ft | 509 kts | 4° |
| 2026-05-04 18:29 | 45.50333 | 39.69266 | 39954 ft | 509 kts | 4° |
| 2026-05-04 18:29 | 45.57395 | 39.69748 | 39959 ft | 508 kts | 4° |
| 2026-05-04 18:30 | 45.67916 | 39.70459 | 39966 ft | 506 kts | 4° |
| 2026-05-04 18:31 | 45.74943 | 39.70936 | 39968 ft | 505 kts | 4° |
| 2026-05-04 18:31 | 45.81962 | 39.71408 | 39973 ft | 504 kts | 4° |
| 2026-05-04 18:32 | 45.88967 | 39.71894 | 39979 ft | 504 kts | 4° |
| 2026-05-04 18:32 | 45.95918 | 39.72375 | 39985 ft | 503 kts | 4° |
| 2026-05-04 18:33 | 46.02918 | 39.72848 | 39988 ft | 503 kts | 4° |
| 2026-05-04 18:33 | 46.09909 | 39.73319 | 39992 ft | 503 kts | 4° |
| 2026-05-04 18:34 | 46.16853 | 39.73797 | 39998 ft | 503 kts | 4° |
| 2026-05-04 18:34 | 46.23833 | 39.74287 | 40002 ft | 502 kts | 4° |
| 2026-05-04 18:35 | 46.30803 | 39.74773 | 40016 ft | 501 kts | 4° |
| 2026-05-04 18:35 | 46.37764 | 39.75259 | 40004 ft | 500 kts | 4° |
| 2026-05-04 18:36 | 46.44713 | 39.75850 | 40006 ft | 500 kts | 4° |
| 2026-05-04 18:36 | 46.51607 | 39.76471 | 40027 ft | 499 kts | 5° |
| 2026-05-04 18:37 | 46.58543 | 39.77090 | 40029 ft | 499 kts | 4° |
| 2026-05-04 18:37 | 46.65474 | 39.77699 | 40027 ft | 499 kts | 5° |
| 2026-05-04 18:38 | 46.72400 | 39.78313 | 40027 ft | 499 kts | 4° |
| 2026-05-04 18:38 | 46.79285 | 39.78920 | 40021 ft | 499 kts | 5° |
| 2026-05-04 18:39 | 46.86213 | 39.79535 | 40031 ft | 499 kts | 5° |
| 2026-05-04 18:39 | 46.93141 | 39.80155 | 40027 ft | 499 kts | 5° |
| 2026-05-04 18:40 | 47.00078 | 39.80773 | 40032 ft | 499 kts | 4° |
| 2026-05-04 18:40 | 47.07015 | 39.81394 | 40035 ft | 500 kts | 4° |
| 2026-05-04 18:41 | 47.13911 | 39.82015 | 40030 ft | 500 kts | 5° |
| 2026-05-04 18:41 | 47.20817 | 39.83048 | 40043 ft | 499 kts | 13° |
| 2026-05-04 18:42 | 47.27590 | 39.85270 | 40035 ft | 499 kts | 14° |
| 2026-05-04 18:42 | 47.34296 | 39.87661 | 40048 ft | 499 kts | 15° |
| 2026-05-04 18:43 | 47.41045 | 39.90102 | 40046 ft | 500 kts | 14° |
| 2026-05-04 18:43 | 47.47801 | 39.92535 | 40041 ft | 500 kts | 14° |
| 2026-05-04 18:44 | 47.54529 | 39.95072 | 40048 ft | 500 kts | 17° |
| 2026-05-04 18:44 | 47.61201 | 39.98011 | 40046 ft | 499 kts | 18° |
| 2026-05-04 18:45 | 47.67807 | 40.00983 | 40048 ft | 499 kts | 17° |
| 2026-05-04 18:45 | 47.74470 | 40.03918 | 40046 ft | 499 kts | 17° |
| 2026-05-04 18:46 | 47.81133 | 40.06818 | 40043 ft | 499 kts | 17° |
| 2026-05-04 18:46 | 47.87796 | 40.09679 | 40042 ft | 498 kts | 14° |
| 2026-05-04 18:47 | 47.94573 | 40.11840 | 40051 ft | 498 kts | 12° |
| 2026-05-04 18:47 | 48.01312 | 40.13838 | 40050 ft | 497 kts | 11° |
| 2026-05-04 18:48 | 48.08091 | 40.15828 | 40052 ft | 496 kts | 11° |
| 2026-05-04 18:48 | 48.14886 | 40.17519 | 40056 ft | 495 kts | 7° |
| 2026-05-04 18:49 | 48.21719 | 40.18783 | 40051 ft | 494 kts | 7° |
| 2026-05-04 18:49 | 48.28487 | 40.20075 | 40057 ft | 493 kts | 7° |
| 2026-05-04 18:50 | 48.35272 | 40.21455 | 40057 ft | 492 kts | 8° |
| 2026-05-04 18:50 | 48.41986 | 40.22852 | 40055 ft | 491 kts | 8° |
| 2026-05-04 18:51 | 48.48757 | 40.24268 | 40054 ft | 491 kts | 8° |
| 2026-05-04 18:51 | 48.55519 | 40.25691 | 40058 ft | 491 kts | 8° |
| 2026-05-04 18:52 | 48.62248 | 40.27093 | 40062 ft | 491 kts | 8° |
| 2026-05-04 18:52 | 48.69019 | 40.28508 | 40057 ft | 491 kts | 8° |
| 2026-05-04 18:53 | 48.75795 | 40.29932 | 40060 ft | 491 kts | 8° |
| 2026-05-04 18:53 | 48.82524 | 40.31348 | 40062 ft | 492 kts | 8° |
| 2026-05-04 18:54 | 48.89302 | 40.32784 | 40062 ft | 492 kts | 8° |
| 2026-05-04 18:54 | 48.96089 | 40.34234 | 40063 ft | 492 kts | 8° |
| 2026-05-04 18:55 | 49.02875 | 40.35678 | 40061 ft | 493 kts | 8° |
| 2026-05-04 18:55 | 49.13058 | 40.37851 | 40065 ft | 493 kts | 8° |
| 2026-05-04 18:56 | 49.19803 | 40.39301 | 40062 ft | 493 kts | 8° |
| 2026-05-04 18:56 | 49.26602 | 40.40766 | 40059 ft | 493 kts | 7° |
| 2026-05-04 18:57 | 49.33402 | 40.42235 | 40059 ft | 493 kts | 7° |
| 2026-05-04 18:57 | 49.40200 | 40.43706 | 40059 ft | 494 kts | 7° |
| 2026-05-04 18:58 | 49.46958 | 40.45167 | 40061 ft | 494 kts | 7° |
| 2026-05-04 18:58 | 49.53772 | 40.46493 | 40063 ft | 493 kts | 2° |
| 2026-05-04 18:59 | 49.60627 | 40.47064 | 40060 ft | 493 kts | 2° |
| 2026-05-04 18:59 | 49.67476 | 40.47534 | 40059 ft | 493 kts | 2° |
| 2026-05-04 19:00 | 49.74323 | 40.47984 | 40056 ft | 493 kts | 2° |
| 2026-05-04 19:00 | 49.81126 | 40.48443 | 40057 ft | 493 kts | 2° |
| 2026-05-04 19:01 | 49.87974 | 40.48909 | 40054 ft | 492 kts | 2° |
| 2026-05-04 19:01 | 49.94816 | 40.49381 | 40053 ft | 492 kts | 2° |
| 2026-05-04 19:02 | 50.01656 | 40.49851 | 40054 ft | 492 kts | 2° |
| 2026-05-04 19:02 | 50.08388 | 40.51207 | 40054 ft | 493 kts | 15° |
| 2026-05-04 19:03 | 50.14964 | 40.54220 | 40051 ft | 493 kts | 17° |
| 2026-05-04 19:03 | 50.21505 | 40.57479 | 40046 ft | 493 kts | 17° |
| 2026-05-04 19:04 | 50.28037 | 40.60767 | 40045 ft | 493 kts | 17° |
| 2026-05-04 19:04 | 50.34531 | 40.64017 | 40049 ft | 493 kts | 17° |
| 2026-05-04 19:05 | 50.41066 | 40.67288 | 40050 ft | 493 kts | 17° |
| 2026-05-04 19:05 | 50.47604 | 40.70557 | 40044 ft | 493 kts | 17° |
| 2026-05-04 19:06 | 50.54130 | 40.73834 | 40045 ft | 492 kts | 17° |
| 2026-05-04 19:06 | 50.60657 | 40.77125 | 40046 ft | 492 kts | 17° |
| 2026-05-04 19:07 | 50.67133 | 40.80411 | 40045 ft | 492 kts | 17° |
| 2026-05-04 19:07 | 50.73650 | 40.83718 | 40046 ft | 492 kts | 17° |
| 2026-05-04 19:08 | 50.80165 | 40.87039 | 40038 ft | 492 kts | 17° |
| 2026-05-04 19:08 | 50.86832 | 40.89211 | 40036 ft | 489 kts | 2° |
| 2026-05-04 19:09 | 50.93540 | 40.88458 | 40036 ft | 487 kts | 351° |
| 2026-05-04 19:09 | 51.00235 | 40.86824 | 40033 ft | 487 kts | 349° |
| 2026-05-04 19:10 | 51.06919 | 40.85059 | 40031 ft | 487 kts | 349° |
| 2026-05-04 19:10 | 51.13609 | 40.83342 | 40030 ft | 487 kts | 350° |
| 2026-05-04 19:11 | 51.20254 | 40.81662 | 40026 ft | 487 kts | 350° |
| 2026-05-04 19:11 | 51.26945 | 40.79968 | 40028 ft | 487 kts | 350° |
| 2026-05-04 19:12 | 51.36971 | 40.77413 | 40018 ft | 487 kts | 349° |
| 2026-05-04 19:13 | 51.43657 | 40.75701 | 40019 ft | 487 kts | 349° |
| 2026-05-04 19:13 | 51.50302 | 40.73995 | 40018 ft | 486 kts | 349° |
| 2026-05-04 19:14 | 51.56984 | 40.72268 | 40016 ft | 486 kts | 349° |
| 2026-05-04 19:14 | 51.63663 | 40.70544 | 40012 ft | 486 kts | 349° |
| 2026-05-04 19:15 | 51.70344 | 40.68816 | 40017 ft | 486 kts | 349° |
| 2026-05-04 19:15 | 51.76966 | 40.67097 | 40009 ft | 486 kts | 349° |
| 2026-05-04 19:16 | 51.83644 | 40.65353 | 40003 ft | 485 kts | 349° |
| 2026-05-04 19:16 | 51.90312 | 40.63616 | 39999 ft | 485 kts | 349° |
| 2026-05-04 19:17 | 51.96973 | 40.61864 | 39995 ft | 485 kts | 349° |
| 2026-05-04 19:17 | 52.03589 | 40.60120 | 39993 ft | 485 kts | 349° |
| 2026-05-04 19:18 | 52.10242 | 40.58369 | 39997 ft | 484 kts | 349° |
| 2026-05-04 19:18 | 52.16899 | 40.56609 | 39998 ft | 484 kts | 349° |
| 2026-05-04 19:19 | 52.23552 | 40.54846 | 39988 ft | 484 kts | 349° |
| 2026-05-04 19:19 | 52.30155 | 40.53088 | 39987 ft | 484 kts | 349° |
| 2026-05-04 19:20 | 52.36808 | 40.51301 | 39985 ft | 484 kts | 349° |
| 2026-05-04 19:20 | 52.43459 | 40.49534 | 39983 ft | 484 kts | 349° |
| 2026-05-04 19:21 | 52.49998 | 40.47055 | 39980 ft | 482 kts | 338° |
| 2026-05-04 19:21 | 52.55954 | 40.42248 | 39978 ft | 480 kts | 330° |
| 2026-05-04 19:22 | 52.61771 | 40.36841 | 39974 ft | 480 kts | 329° |
| 2026-05-04 19:22 | 52.67555 | 40.31342 | 39976 ft | 480 kts | 328° |
| 2026-05-04 19:23 | 52.73334 | 40.25826 | 39971 ft | 480 kts | 329° |
| 2026-05-04 19:23 | 52.79118 | 40.20334 | 39968 ft | 480 kts | 329° |
| 2026-05-04 19:24 | 52.84868 | 40.14891 | 39964 ft | 479 kts | 329° |
| 2026-05-04 19:24 | 52.90656 | 40.09422 | 39964 ft | 479 kts | 329° |
| 2026-05-04 19:25 | 52.96443 | 40.03944 | 39961 ft | 479 kts | 329° |
| 2026-05-04 19:25 | 53.02177 | 39.98477 | 39960 ft | 478 kts | 329° |
| 2026-05-04 19:26 | 53.07936 | 39.92955 | 39772 ft | 477 kts | 329° |
| 2026-05-04 19:26 | 53.10800 | 39.90199 | 39539 ft | 476 kts | 329° |
| 2026-05-04 19:26 | 53.13666 | 39.87438 | 39307 ft | 475 kts | 329° |
| 2026-05-04 19:26 | 53.16526 | 39.84678 | 39076 ft | 475 kts | 329° |
| 2026-05-04 19:27 | 53.19387 | 39.81917 | 38842 ft | 475 kts | 329° |
| 2026-05-04 19:27 | 53.22203 | 39.79197 | 38628 ft | 474 kts | 329° |
| 2026-05-04 19:27 | 53.25056 | 39.76438 | 38297 ft | 473 kts | 329° |
| 2026-05-04 19:27 | 53.27890 | 39.73687 | 37713 ft | 470 kts | 329° |
| 2026-05-04 19:28 | 53.30711 | 39.70946 | 37068 ft | 469 kts | 329° |
| 2026-05-04 19:28 | 53.33531 | 39.68202 | 36395 ft | 469 kts | 329° |
| 2026-05-04 19:28 | 53.36307 | 39.65497 | 35734 ft | 469 kts | 329° |
| 2026-05-04 19:28 | 53.39163 | 39.62703 | 35021 ft | 469 kts | 329° |
| 2026-05-04 19:29 | 53.41987 | 39.59945 | 34253 ft | 471 kts | 330° |
| 2026-05-04 19:29 | 53.44830 | 39.57329 | 33383 ft | 473 kts | 333° |
| 2026-05-04 19:29 | 53.47765 | 39.54848 | 32584 ft | 472 kts | 334° |
| 2026-05-04 19:29 | 53.50704 | 39.52453 | 32034 ft | 466 kts | 334° |
| 2026-05-04 19:30 | 53.53613 | 39.50086 | 31470 ft | 462 kts | 334° |
| 2026-05-04 19:30 | 53.56483 | 39.47723 | 30881 ft | 458 kts | 334° |
| 2026-05-04 19:30 | 53.59326 | 39.45352 | 30317 ft | 454 kts | 334° |
| 2026-05-04 19:30 | 53.62142 | 39.42977 | 29695 ft | 451 kts | 333° |
| 2026-05-04 19:31 | 53.64934 | 39.40602 | 29100 ft | 447 kts | 333° |
| 2026-05-04 19:31 | 53.67690 | 39.38245 | 28531 ft | 442 kts | 333° |
| 2026-05-04 19:31 | 53.70379 | 39.35935 | 27988 ft | 438 kts | 333° |
| 2026-05-04 19:31 | 53.73059 | 39.33634 | 27434 ft | 433 kts | 333° |
| 2026-05-04 19:32 | 53.75753 | 39.31321 | 26879 ft | 430 kts | 333° |
| 2026-05-04 19:32 | 53.78407 | 39.29035 | 26325 ft | 426 kts | 333° |
| 2026-05-04 19:32 | 53.81035 | 39.26770 | 25777 ft | 423 kts | 332° |
| 2026-05-04 19:32 | 53.83646 | 39.24505 | 25226 ft | 420 kts | 332° |
| 2026-05-04 19:33 | 53.86220 | 39.22282 | 24672 ft | 417 kts | 333° |
| 2026-05-04 19:33 | 53.88822 | 39.20041 | 24128 ft | 415 kts | 332° |
| 2026-05-04 19:33 | 53.91348 | 39.17851 | 23587 ft | 413 kts | 332° |
| 2026-05-04 19:33 | 53.93899 | 39.15629 | 22965 ft | 411 kts | 332° |
| 2026-05-04 19:34 | 53.96426 | 39.13424 | 22395 ft | 407 kts | 332° |
| 2026-05-04 19:34 | 53.98938 | 39.11238 | 21828 ft | 404 kts | 332° |
| 2026-05-04 19:34 | 54.01426 | 39.09064 | 21273 ft | 401 kts | 332° |
| 2026-05-04 19:34 | 54.03898 | 39.06904 | 20704 ft | 398 kts | 332° |
| 2026-05-04 19:35 | 54.06352 | 39.04755 | 20134 ft | 395 kts | 332° |
| 2026-05-04 19:35 | 54.08792 | 39.02625 | 19565 ft | 393 kts | 332° |
| 2026-05-04 19:35 | 54.11211 | 39.00511 | 19007 ft | 390 kts | 332° |
| 2026-05-04 19:35 | 54.13576 | 38.98439 | 18648 ft | 382 kts | 332° |
| 2026-05-04 19:36 | 54.15893 | 38.96408 | 18535 ft | 367 kts | 332° |
| 2026-05-04 19:36 | 54.18119 | 38.94450 | 18426 ft | 353 kts | 332° |
| 2026-05-04 19:36 | 54.20278 | 38.92546 | 18041 ft | 349 kts | 332° |
| 2026-05-04 19:36 | 54.22428 | 38.90644 | 17535 ft | 347 kts | 332° |
| 2026-05-04 19:37 | 54.24570 | 38.88768 | 17087 ft | 343 kts | 332° |
| 2026-05-04 19:37 | 54.26698 | 38.86960 | 16659 ft | 340 kts | 332° |
| 2026-05-04 19:37 | 54.28779 | 38.85200 | 16234 ft | 337 kts | 332° |
| 2026-05-04 19:37 | 54.30873 | 38.83426 | 15809 ft | 335 kts | 332° |
| 2026-05-04 19:38 | 54.32952 | 38.81656 | 15386 ft | 332 kts | 332° |
| 2026-05-04 19:38 | 54.35016 | 38.79895 | 14969 ft | 330 kts | 332° |
| 2026-05-04 19:38 | 54.37064 | 38.78144 | 14538 ft | 328 kts | 332° |
| 2026-05-04 19:38 | 54.39096 | 38.76408 | 14119 ft | 326 kts | 332° |
| 2026-05-04 19:39 | 54.41119 | 38.74683 | 13703 ft | 323 kts | 332° |
| 2026-05-04 19:39 | 54.43122 | 38.72969 | 13257 ft | 320 kts | 332° |
| 2026-05-04 19:39 | 54.45106 | 38.71268 | 12841 ft | 317 kts | 332° |
| 2026-05-04 19:39 | 54.47043 | 38.69597 | 12440 ft | 315 kts | 332° |
| 2026-05-04 19:40 | 54.48990 | 38.67922 | 12027 ft | 313 kts | 332° |
| 2026-05-04 19:40 | 54.50934 | 38.66251 | 11629 ft | 310 kts | 332° |
| 2026-05-04 19:40 | 54.52857 | 38.64593 | 11232 ft | 308 kts | 332° |
| 2026-05-04 19:40 | 54.54768 | 38.62942 | 10832 ft | 306 kts | 332° |
| 2026-05-04 19:41 | 54.56666 | 38.61298 | 10434 ft | 304 kts | 332° |
| 2026-05-04 19:41 | 54.58538 | 38.59678 | 10199 ft | 296 kts | 332° |
| 2026-05-04 19:41 | 54.60311 | 38.58144 | 10086 ft | 282 kts | 332° |
| 2026-05-04 19:41 | 54.61485 | 38.57127 | 9932 ft | 278 kts | 332° |
| 2026-05-04 19:43 | 54.73614 | 38.46528 | 7942 ft | 265 kts | 331° |
| 2026-05-04 19:43 | 54.75252 | 38.45111 | 7619 ft | 262 kts | 331° |
| 2026-05-04 19:44 | 54.76882 | 38.43698 | 7312 ft | 262 kts | 331° |
| 2026-05-04 19:44 | 54.78514 | 38.42281 | 7044 ft | 260 kts | 331° |
| 2026-05-04 19:44 | 54.80097 | 38.40909 | 6885 ft | 251 kts | 331° |
| 2026-05-04 19:44 | 54.81647 | 38.39562 | 6622 ft | 248 kts | 331° |
| 2026-05-04 19:45 | 54.83191 | 38.38218 | 6350 ft | 248 kts | 331° |
| 2026-05-04 19:45 | 54.84736 | 38.36872 | 6043 ft | 248 kts | 331° |
| 2026-05-04 19:45 | 54.86254 | 38.35557 | 5902 ft | 248 kts | 331° |
| 2026-05-04 19:45 | 54.87791 | 38.34204 | 5846 ft | 248 kts | 330° |
| 2026-05-04 19:46 | 54.89325 | 38.32845 | 5766 ft | 247 kts | 330° |
| 2026-05-04 19:46 | 54.90857 | 38.31488 | 5677 ft | 247 kts | 330° |
| 2026-05-04 19:46 | 54.92392 | 38.30130 | 5591 ft | 247 kts | 330° |
| 2026-05-04 19:46 | 54.93923 | 38.28776 | 5505 ft | 247 kts | 330° |
| 2026-05-04 19:47 | 54.95457 | 38.27420 | 5410 ft | 247 kts | 330° |
| 2026-05-04 19:47 | 54.96988 | 38.26064 | 5329 ft | 247 kts | 330° |
| 2026-05-04 19:47 | 54.98521 | 38.24706 | 5239 ft | 247 kts | 330° |
| 2026-05-04 19:47 | 55.00032 | 38.23366 | 5152 ft | 247 kts | 330° |
| 2026-05-04 19:48 | 55.01564 | 38.22007 | 5060 ft | 247 kts | 330° |
| 2026-05-04 19:48 | 55.03096 | 38.20648 | 4978 ft | 247 kts | 329° |
| 2026-05-04 19:48 | 55.04627 | 38.19287 | 4889 ft | 247 kts | 329° |
| 2026-05-04 19:48 | 55.06158 | 38.17926 | 4805 ft | 247 kts | 329° |
| 2026-05-04 19:49 | 55.07689 | 38.16563 | 4709 ft | 247 kts | 329° |
| 2026-05-04 19:49 | 55.09219 | 38.15200 | 4627 ft | 247 kts | 329° |
| 2026-05-04 19:49 | 55.10750 | 38.13834 | 4540 ft | 247 kts | 329° |
| 2026-05-04 19:49 | 55.12293 | 38.12584 | 4424 ft | 241 kts | 337° |
| 2026-05-04 19:50 | 55.13893 | 38.11905 | 4359 ft | 241 kts | 346° |
| 2026-05-04 19:50 | 55.15545 | 38.11390 | 4281 ft | 241 kts | 346° |
| 2026-05-04 19:50 | 55.17198 | 38.10881 | 4197 ft | 241 kts | 346° |
| 2026-05-04 19:50 | 55.18849 | 38.10367 | 4112 ft | 241 kts | 346° |
| 2026-05-04 19:51 | 55.20488 | 38.09853 | 4023 ft | 235 kts | 346° |
| 2026-05-04 19:51 | 55.22061 | 38.09358 | 3927 ft | 225 kts | 346° |
| 2026-05-04 19:51 | 55.23541 | 38.08745 | 3836 ft | 212 kts | 338° |
| 2026-05-04 19:51 | 55.24840 | 38.07805 | 3792 ft | 193 kts | 328° |
| 2026-05-04 19:52 | 55.25910 | 38.06646 | 3723 ft | 174 kts | 319° |
| 2026-05-04 19:52 | 55.26869 | 38.05460 | 3527 ft | 165 kts | 319° |
| 2026-05-04 19:52 | 55.27803 | 38.04348 | 3298 ft | 160 kts | 320° |
| 2026-05-04 19:52 | 55.28694 | 38.03292 | 3084 ft | 150 kts | 319° |
| 2026-05-04 19:53 | 55.29551 | 38.02265 | 2882 ft | 149 kts | 319° |
| 2026-05-04 19:53 | 55.30406 | 38.01241 | 2685 ft | 149 kts | 319° |
| 2026-05-04 19:53 | 55.31262 | 38.00217 | 2489 ft | 149 kts | 319° |
| 2026-05-04 19:53 | 55.32117 | 37.99193 | 2306 ft | 149 kts | 318° |
| 2026-05-04 19:54 | 55.32959 | 37.98185 | 2100 ft | 148 kts | 318° |
| 2026-05-04 19:54 | 55.33814 | 37.97161 | 1896 ft | 149 kts | 318° |
| 2026-05-04 19:54 | 55.34672 | 37.96133 | 1713 ft | 149 kts | 319° |
| 2026-05-04 19:54 | 55.35531 | 37.95103 | 1517 ft | 149 kts | 319° |
| 2026-05-04 19:55 | 55.36384 | 37.94074 | 1312 ft | 149 kts | 321° |
| 2026-05-04 19:55 | 55.37235 | 37.93054 | 1113 ft | 147 kts | 322° |
| 2026-05-04 19:55 | 55.38073 | 37.92045 | 909 ft | 145 kts | 324° |
| 2026-05-04 19:55 | 55.38899 | 37.91066 | 728 ft | 145 kts | 325° |
| 2026-05-04 19:56 | 55.39733 | 37.90065 | 588 ft | 146 kts | 326° |
| 2026-05-04 19:56 | 55.40527 | 37.89120 | 578 ft | 123 kts | 325° |
| 2026-05-04 19:56 | 55.41036 | 37.88505 | 586 ft | 64 kts | 325° |
| 2026-05-04 19:56 | 55.41343 | 37.88136 | 590 ft | 30 kts | 326° |
| 2026-05-04 19:57 | 55.41526 | 37.87984 | 592 ft | 30 kts | 346° |
| 2026-05-04 19:57 | 55.41660 | 37.87949 | 591 ft | 2 kts | 357° |
| 2026-05-04 19:57 | 55.41696 | 37.87965 | 590 ft | 9 kts | 27° |
| 2026-05-04 19:57 | 55.41711 | 37.88021 | 589 ft | 5 kts | 109° |
| 2026-05-04 19:58 | 55.41683 | 37.88087 | 589 ft | 9 kts | 141° |
| 2026-05-04 19:58 | 55.41616 | 37.88173 | 588 ft | 15 kts | 144° |
| 2026-05-04 19:58 | 55.41523 | 37.88283 | 587 ft | 14 kts | 147° |
| 2026-05-04 19:58 | 55.41423 | 37.88401 | 586 ft | 20 kts | 144° |
| 2026-05-04 19:59 | 55.41294 | 37.88558 | 585 ft | 25 kts | 145° |
| 2026-05-04 19:59 | 55.41140 | 37.88741 | 589 ft | 28 kts | 146° |
| 2026-05-04 19:59 | 55.40972 | 37.88944 | 582 ft | 30 kts | 146° |
| 2026-05-04 19:59 | 55.40832 | 37.89113 | 580 ft | 16 kts | 144° |
| 2026-05-04 20:00 | 55.40785 | 37.89279 | 576 ft | 18 kts | 91° |
| 2026-05-04 20:00 | 55.40833 | 37.89489 | 581 ft | 19 kts | 55° |
| 2026-05-04 20:00 | 55.40916 | 37.89672 | 582 ft | 20 kts | 56° |
| 2026-05-04 20:00 | 55.40999 | 37.89885 | 581 ft | 22 kts | 55° |
| 2026-05-04 20:01 | 55.41094 | 37.90128 | 580 ft | 25 kts | 55° |
| 2026-05-04 20:01 | 55.41168 | 37.90290 | 582 ft | 13 kts | 28° |
| 2026-05-04 20:01 | 55.41241 | 37.90256 | 583 ft | 7 kts | 324° |
| 2026-05-04 20:01 | 55.41279 | 37.90196 | 585 ft | 8 kts | 305° |
| 2026-05-04 20:02 | 55.41282 | 37.90143 | 580 ft | 3 kts | 240° |
| 2026-05-04 20:02 | 55.41271 | 37.90104 | 583 ft | 5 kts | 241° |